Terminal Aerodrome Forecast
Issued by NWS

Home | Current Version | Previous Version | Text Only | Print | Product List | Glossary On
Versions: 1 2 3 4 5 6 7 8 9 10 11 12 13 14 15 16 17 18 19 20 21 22 23 24 25 26 27 28 29 30 31 32 33 34 35
000
FTUS43 KMKX 291420 AAA
TAFENW
TAF AMD
KENW 291420Z 2914/3012 36008KT P6SM BKN015 OVC025
     FM291500 02008KT P6SM SCT015 BKN025
     FM291700 04008KT P6SM BKN040
     FM292000 05008KT P6SM BKN040
     FM300800 07006KT P6SM BKN025
     FM301000 07007KT P6SM BKN040=

USA.gov is the U.S. government's official web portal to all federal, state and local government web resources and services.